Time;durP1;ratioP1;P1;durP2;ratioP2;P2;SDS_P1;SDS_P2;PMS_P1;PMS_P2;Temp;Humidity;BMP_temperature;BMP_pressure;BME280_temperature;BME280_humidity;BME280_pressure;Samples;Min_cycle;Max_cycle;Signal;HPM_P1;HPM_P2
2021/06/26 00:02:20;;;;;;;20.57;16.10;;;;;;;15.69;77.22;100487.76;1956427;89;32893;-61
2021/06/26 00:05:22;;;;;;;19.77;17.48;;;;;;;15.66;77.20;100492.02;1956667;89;29598;-61
2021/06/26 00:08:25;;;;;;;25.45;16.23;;;;;;;15.63;77.18;100489.55;1957051;89;27682;-61
2021/06/26 00:11:27;;;;;;;20.15;15.43;;;;;;;15.60;77.23;100491.95;1939176;91;29450;-63
2021/06/26 00:14:29;;;;;;;19.37;15.88;;;;;;;15.59;77.28;100489.37;1956271;89;31306;-63
2021/06/26 00:17:31;;;;;;;24.15;16.90;;;;;;;15.57;77.30;100491.30;1956660;89;33705;-61
2021/06/26 00:20:33;;;;;;;20.37;14.60;;;;;;;15.54;77.32;100497.79;1970482;89;29385;-61
2021/06/26 00:23:35;;;;;;;19.10;15.53;;;;;;;15.52;77.34;100494.79;1925126;91;27698;-61
2021/06/26 00:26:54;;;;;;;17.42;15.40;;;;;;;15.49;77.50;100498.57;1962794;89;29466;-61
2021/06/26 00:29:58;;;;;;;19.40;16.02;;;;;;;15.48;77.48;100495.48;1920516;91;29001;-61
2021/06/26 00:33:05;;;;;;;18.23;14.98;;;;;;;15.47;77.68;100503.20;2010251;88;32934;-60
2021/06/26 00:36:08;;;;;;;18.42;15.30;;;;;;;15.47;77.70;100519.41;2015403;87;29381;-60
2021/06/26 00:39:11;;;;;;;20.72;16.15;;;;;;;15.44;77.69;100521.84;2018565;87;27572;-61
2021/06/26 00:42:36;;;;;;;22.67;15.28;;;;;;;15.42;77.75;100525.13;2012601;87;29470;-61
2021/06/26 00:45:58;;;;;;;19.50;14.95;;;;;;;15.42;77.77;100522.42;2004680;86;27748;-63
2021/06/26 00:48:51;;;;;;;23.73;15.05;;;;;;;15.42;77.84;100522.89;1980730;89;29767;-58
2021/06/26 00:51:53;;;;;;;23.38;16.17;;;;;;;15.42;77.81;100518.37;1988170;89;29658;-59
2021/06/26 00:54:54;;;;;;;21.75;15.75;;;;;;;15.41;77.72;100514.41;1991803;86;27671;-60
2021/06/26 00:57:58;;;;;;;17.65;15.35;;;;;;;15.39;77.73;100512.31;2019185;86;28778;-61
2021/06/26 01:01:00;;;;;;;19.57;16.48;;;;;;;15.36;77.81;100513.37;2018425;87;30999;-61
2021/06/26 01:04:01;;;;;;;23.38;15.72;;;;;;;15.34;77.80;100508.55;2017924;86;32453;-62
2021/06/26 01:07:12;;;;;;;21.27;16.85;;;;;;;15.32;77.77;100510.02;2017971;87;30151;-61
2021/06/26 01:10:20;;;;;;;20.27;15.90;;;;;;;15.30;77.81;100507.90;2018569;88;27568;-60
2021/06/26 01:13:22;;;;;;;22.58;17.30;;;;;;;15.28;77.78;100503.58;2018483;87;28602;-61
2021/06/26 01:16:26;;;;;;;20.88;15.50;;;;;;;15.26;77.80;100504.16;2019312;86;31085;-61
2021/06/26 01:19:28;;;;;;;15.40;13.80;;;;;;;15.22;77.71;100501.27;2018593;86;33178;-61
2021/06/26 01:22:45;;;;;;;15.28;13.45;;;;;;;15.20;77.68;100501.39;2019240;86;29379;-61
2021/06/26 01:25:42;;;;;;;19.25;15.53;;;;;;;15.17;77.65;100497.53;2013938;87;27559;-63
2021/06/26 01:28:44;;;;;;;17.40;15.58;;;;;;;15.14;77.70;100495.88;2018947;87;28713;-63
2021/06/26 01:31:47;;;;;;;17.98;15.53;;;;;;;15.10;77.70;100497.54;2018387;87;31078;-61
2021/06/26 01:34:50;;;;;;;16.93;14.15;;;;;;;15.07;77.70;100490.98;2018108;87;33023;-60
2021/06/26 01:38:30;;;;;;;18.80;14.83;;;;;;;15.01;77.70;100489.09;2000934;88;29537;-59
2021/06/26 01:41:48;;;;;;;17.70;14.07;;;;;;;14.99;77.71;100486.98;2012303;88;27548;-62
2021/06/26 01:44:55;;;;;;;16.70;14.95;;;;;;;14.95;77.71;100477.34;2006332;87;27632;-61
2021/06/26 01:48:11;;;;;;;17.30;13.58;;;;;;;14.92;77.80;100483.44;1998079;88;28842;-61
2021/06/26 01:51:12;;;;;;;17.77;14.83;;;;;;;14.89;77.79;100473.72;2007900;88;29754;-62
2021/06/26 01:54:14;;;;;;;16.35;14.58;;;;;;;14.86;77.85;100475.27;2010045;87;29310;-65
2021/06/26 01:57:16;;;;;;;16.02;14.33;;;;;;;14.82;78.05;100479.97;2010687;88;27576;-67
2021/06/26 02:00:20;;;;;;;21.37;17.67;;;;;;;14.80;77.92;100477.00;2010971;88;28781;-60
2021/06/26 02:03:22;;;;;;;17.60;15.80;;;;;;;14.78;78.04;100486.55;2011134;88;31027;-61
2021/06/26 02:06:24;;;;;;;20.20;15.50;;;;;;;14.77;77.97;100493.38;2010915;88;33603;-60
2021/06/26 02:09:27;;;;;;;17.60;14.38;;;;;;;14.74;78.14;100501.19;2010650;88;29431;-60
2021/06/26 02:12:29;;;;;;;16.65;13.35;;;;;;;14.72;78.15;100503.11;2011021;88;27441;-60
2021/06/26 02:15:31;;;;;;;18.70;14.30;;;;;;;14.70;78.27;100519.41;2010973;88;28668;-61
2021/06/26 02:18:33;;;;;;;15.45;13.80;;;;;;;14.67;78.34;100511.94;2011051;88;31811;-61
2021/06/26 02:21:35;;;;;;;17.65;13.43;;;;;;;14.65;78.39;100508.00;2010928;88;33020;-61
2021/06/26 02:24:37;;;;;;;14.98;13.38;;;;;;;14.63;78.32;100508.58;2010792;88;29383;-60
2021/06/26 02:27:39;;;;;;;15.53;13.15;;;;;;;14.61;78.37;100505.60;2011046;88;27667;-61
2021/06/26 02:30:41;;;;;;;17.40;14.28;;;;;;;14.58;78.35;100508.88;2010937;88;28623;-61
2021/06/26 02:33:43;;;;;;;22.20;16.32;;;;;;;14.58;78.38;100508.88;2010942;88;31194;-61
2021/06/26 02:36:46;;;;;;;17.02;13.93;;;;;;;14.58;78.40;100512.03;2015931;88;32899;-62
2021/06/26 02:39:48;;;;;;;16.93;14.47;;;;;;;14.57;78.35;100519.73;2018914;88;29483;-61
2021/06/26 02:42:50;;;;;;;15.08;13.35;;;;;;;14.56;78.38;100520.23;2018996;88;27801;-61
2021/06/26 02:45:53;;;;;;;14.98;13.40;;;;;;;14.55;78.41;100526.59;2018879;88;28625;-61
2021/06/26 02:48:55;;;;;;;22.42;15.75;;;;;;;14.56;78.40;100528.81;2018893;87;31023;-64
2021/06/26 02:52:00;;;;;;;17.27;13.62;;;;;;;14.56;78.42;100535.56;2018835;87;33723;-61
2021/06/26 02:55:05;;;;;;;16.52;14.80;;;;;;;14.57;78.49;100542.19;2018889;88;29335;-62
2021/06/26 02:58:07;;;;;;;15.55;13.95;;;;;;;14.58;78.48;100547.97;2018974;88;27536;-67
2021/06/26 03:01:10;;;;;;;18.70;14.87;;;;;;;14.61;78.49;100543.35;2018878;88;29656;-62
2021/06/26 03:04:13;;;;;;;16.15;14.50;;;;;;;14.61;78.46;100547.39;2018840;88;31043;-62
2021/06/26 03:07:15;;;;;;;19.52;16.17;;;;;;;14.63;78.49;100554.41;2018832;88;33030;-62
2021/06/26 03:10:18;;;;;;;18.30;14.40;;;;;;;14.66;78.54;100558.27;2018881;88;29311;-62
2021/06/26 03:13:20;;;;;;;15.78;14.18;;;;;;;14.65;78.62;100554.30;2019062;87;27525;-65
2021/06/26 03:16:23;;;;;;;17.87;13.53;;;;;;;14.70;78.57;100561.20;2018866;87;28710;-62
2021/06/26 03:19:25;;;;;;;15.15;13.55;;;;;;;14.73;78.66;100565.03;2018827;88;31127;-65
2021/06/26 03:22:28;;;;;;;15.38;13.88;;;;;;;14.79;78.71;100562.91;2018820;88;33135;-64
2021/06/26 03:25:30;;;;;;;15.98;14.28;;;;;;;14.83;78.73;100562.62;2018569;88;28872;-64
2021/06/26 03:28:34;;;;;;;17.45;14.50;;;;;;;14.88;78.78;100565.05;2018940;88;27620;-65
2021/06/26 03:31:36;;;;;;;17.40;14.60;;;;;;;14.93;78.87;100565.60;2018873;88;28732;-61
2021/06/26 03:34:39;;;;;;;17.30;14.93;;;;;;;14.98;78.91;100564.84;2018863;87;31885;-61
2021/06/26 03:37:42;;;;;;;20.60;14.80;;;;;;;15.05;78.93;100563.95;2013712;88;33809;-65
2021/06/26 03:40:44;;;;;;;21.77;15.45;;;;;;;15.12;79.03;100561.26;2013443;88;30193;-61
2021/06/26 03:43:46;;;;;;;19.20;17.20;;;;;;;15.21;79.06;100571.06;2013510;88;27598;-64
2021/06/26 03:46:49;;;;;;;20.65;18.45;;;;;;;15.29;79.15;100579.05;2013445;88;29427;-66
2021/06/26 03:49:58;;;;;;;23.95;19.67;;;;;;;15.40;79.34;100581.05;2013485;88;28033;-70
2021/06/26 03:53:03;;;;;;;23.55;19.35;;;;;;;15.52;79.43;100573.09;2013519;88;33541;-68
2021/06/26 03:56:09;;;;;;;24.50;19.77;;;;;;;15.65;79.50;100577.59;2013151;88;27549;-69
2021/06/26 03:59:11;;;;;;;21.75;19.23;;;;;;;15.81;79.64;100571.16;2013641;88;27482;-66
2021/06/26 04:02:13;;;;;;;23.73;19.92;;;;;;;15.96;79.61;100570.65;2013456;88;28725;-64
2021/06/26 04:05:16;;;;;;;24.60;20.55;;;;;;;16.29;79.58;100563.89;2013366;88;31759;-70
2021/06/26 04:08:19;;;;;;;25.65;19.42;;;;;;;16.29;79.58;100563.89;2013506;88;33675;-66
2021/06/26 04:11:22;;;;;;;25.48;19.15;;;;;;;16.50;79.39;100549.81;2013419;88;30080;-69
2021/06/26 04:14:24;;;;;;;21.07;18.87;;;;;;;16.50;79.39;100549.81;2013510;88;27584;-64
2021/06/26 04:17:30;;;;;;;21.68;18.32;;;;;;;16.80;79.41;100570.24;2013394;88;28618;-64
2021/06/26 04:20:33;;;;;;;21.23;18.20;;;;;;;17.01;79.53;100565.17;2013173;88;31005;-62
2021/06/26 04:23:37;;;;;;;19.40;17.35;;;;;;;17.24;79.40;100555.84;2014107;88;33028;-64
2021/06/26 04:26:40;;;;;;;21.27;17.25;;;;;;;17.47;79.01;100555.48;2014628;88;29364;-63
2021/06/26 04:29:43;;;;;;;26.02;17.05;;;;;;;17.91;78.56;100554.45;2015077;88;27548;-64
2021/06/26 04:32:47;;;;;;;17.90;15.93;;;;;;;17.91;78.56;100554.45;2015101;87;28843;-63
2021/06/26 04:35:50;;;;;;;17.23;15.38;;;;;;;18.13;78.59;100555.05;2014408;88;31180;-63
2021/06/26 04:38:53;;;;;;;17.62;14.70;;;;;;;18.36;78.45;100551.92;2012324;88;33828;-64
2021/06/26 04:41:58;;;;;;;19.02;15.63;;;;;;;18.56;77.92;100554.03;2012324;88;29431;-64
2021/06/26 04:45:02;;;;;;;22.65;15.78;;;;;;;18.72;77.67;100555.02;2012773;88;27513;-66
2021/06/26 04:48:07;;;;;;;15.45;13.62;;;;;;;18.81;77.30;100555.14;1996258;88;28278;-63
2021/06/26 04:51:09;;;;;;;17.05;14.98;;;;;;;18.93;76.87;100550.58;1996095;88;31290;-65
2021/06/26 04:54:11;;;;;;;19.25;14.85;;;;;;;18.98;76.80;100548.87;2012624;88;33686;-62
2021/06/26 04:57:38;;;;;;;17.73;14.35;;;;;;;19.05;76.56;100547.88;2012609;88;29324;-65
2021/06/26 05:00:32;;;;;;;17.45;14.40;;;;;;;19.13;76.45;100548.13;2004002;88;27528;-64
2021/06/26 05:03:35;;;;;;;19.05;15.05;;;;;;;19.24;76.45;100544.02;2012253;88;29612;-63
2021/06/26 05:06:37;;;;;;;18.30;14.40;;;;;;;19.38;76.18;100544.73;2012073;88;31780;-65
2021/06/26 05:09:40;;;;;;;15.78;13.83;;;;;;;19.51;75.98;100548.17;2012443;88;33150;-67
2021/06/26 05:12:45;;;;;;;21.20;14.45;;;;;;;19.71;75.90;100545.61;2012555;88;29306;-64
2021/06/26 05:15:48;;;;;;;19.25;14.25;;;;;;;19.91;75.38;100552.13;2012270;88;27767;-64
2021/06/26 05:18:51;;;;;;;16.48;13.72;;;;;;;20.09;75.19;100546.95;2013034;88;29260;-63
2021/06/26 05:21:54;;;;;;;15.10;12.95;;;;;;;20.29;74.80;100549.81;2012790;88;30947;-65
2021/06/26 05:24:57;;;;;;;14.65;13.20;;;;;;;20.48;74.51;100550.42;2012637;88;33112;-65
2021/06/26 05:28:00;;;;;;;16.95;14.53;;;;;;;20.80;74.63;100545.37;2012684;88;30156;-66
2021/06/26 05:31:02;;;;;;;23.22;14.85;;;;;;;21.10;74.31;100542.25;2012774;88;27682;-67
2021/06/26 05:34:05;;;;;;;17.02;14.30;;;;;;;21.43;73.73;100548.86;2012696;88;28629;-67
2021/06/26 05:37:08;;;;;;;16.85;13.88;;;;;;;21.67;72.96;100548.01;2016024;88;31081;-66
2021/06/26 05:40:11;;;;;;;17.48;12.88;;;;;;;22.42;73.09;100547.36;2020628;88;33839;-66
2021/06/26 05:43:15;;;;;;;12.65;11.45;;;;;;;23.69;72.13;100536.81;2020785;88;29312;-68
2021/06/26 05:46:17;;;;;;;14.50;11.17;;;;;;;24.99;70.81;100538.44;2020902;88;27547;-66
2021/06/26 05:49:24;;;;;;;15.10;10.58;;;;;;;26.12;68.38;100532.70;2020619;88;28623;-70
2021/06/26 05:52:26;;;;;;;15.58;10.60;;;;;;;26.72;66.82;100531.92;2020427;88;31117;-67
2021/06/26 05:55:29;;;;;;;13.50;10.10;;;;;;;27.15;65.85;100532.45;2020029;88;34010;-67
2021/06/26 05:58:36;;;;;;;11.65;10.13;;;;;;;27.84;65.17;100522.06;2020579;88;29300;-68
2021/06/26 06:01:37;;;;;;;10.28;9.28;;;;;;;28.55;63.22;100523.64;2020708;87;27973;-66
2021/06/26 06:04:42;;;;;;;9.88;8.88;;;;;;;29.19;61.76;100519.43;2020362;88;29436;-67
2021/06/26 06:07:45;;;;;;;14.30;9.00;;;;;;;29.49;60.47;100527.66;2020323;88;31836;-68
2021/06/26 06:10:47;;;;;;;10.63;8.33;;;;;;;30.04;58.66;100521.63;2020635;87;32934;-68
2021/06/26 06:13:49;;;;;;;10.15;8.60;;;;;;;30.51;58.07;100524.76;2020643;88;30116;-67
2021/06/26 06:16:51;;;;;;;12.28;9.30;;;;;;;31.02;57.31;100528.26;2020705;88;27864;-68
2021/06/26 06:19:53;;;;;;;9.75;8.85;;;;;;;31.54;56.29;100520.36;2020274;88;28683;-66
2021/06/26 06:22:55;;;;;;;12.78;8.48;;;;;;;31.96;53.81;100525.22;2020792;88;31064;-68
2021/06/26 06:25:58;;;;;;;14.78;8.03;;;;;;;32.32;52.84;100525.03;2020395;87;33717;-68
2021/06/26 06:29:01;;;;;;;11.38;8.03;;;;;;;32.63;52.42;100516.55;2020624;88;29360;-69
2021/06/26 06:32:05;;;;;;;14.65;8.75;;;;;;;33.01;51.68;100521.37;2020922;88;27608;-68
2021/06/26 06:35:08;;;;;;;9.38;7.50;;;;;;;33.28;49.94;100524.87;2020845;88;28629;-70
2021/06/26 06:38:11;;;;;;;8.28;7.53;;;;;;;33.52;48.84;100521.56;2020460;88;31820;-71
2021/06/26 06:41:13;;;;;;;8.88;6.92;;;;;;;33.76;47.78;100517.97;2021008;88;33231;-67
2021/06/26 06:44:15;;;;;;;11.22;7.85;;;;;;;33.98;47.76;100516.23;2020690;87;29361;-67
2021/06/26 06:47:17;;;;;;;8.25;7.42;;;;;;;34.21;46.89;100512.81;2020798;88;27640;-67
2021/06/26 06:50:18;;;;;;;10.85;8.23;;;;;;;34.50;46.13;100523.49;2020702;88;28752;-66
2021/06/26 06:53:20;;;;;;;11.03;6.78;;;;;;;34.75;45.01;100521.20;2020671;88;31118;-66
2021/06/26 06:56:22;;;;;;;9.75;7.45;;;;;;;34.94;45.04;100518.73;2020764;87;33794;-67
2021/06/26 06:59:24;;;;;;;8.70;7.70;;;;;;;35.16;44.23;100521.03;2020685;88;30315;-68
2021/06/26 07:02:26;;;;;;;11.22;8.18;;;;;;;35.25;42.75;100529.35;2020698;88;27489;-68
2021/06/26 07:05:28;;;;;;;9.20;8.00;;;;;;;35.19;41.66;100523.35;2019962;88;29381;-69
2021/06/26 07:08:29;;;;;;;8.53;7.20;;;;;;;35.07;41.63;100525.23;2020302;88;31670;-67
2021/06/26 07:11:31;;;;;;;9.23;8.35;;;;;;;35.18;42.31;100523.04;2020510;88;32935;-68
2021/06/26 07:14:33;;;;;;;9.88;7.50;;;;;;;35.40;41.35;100524.77;2020642;88;29315;-68
2021/06/26 07:17:35;;;;;;;9.83;8.80;;;;;;;35.17;40.41;100526.91;2020703;88;27639;-66
2021/06/26 07:20:37;;;;;;;11.35;8.10;;;;;;;34.93;40.61;100525.37;2020442;88;28653;-68
2021/06/26 07:23:38;;;;;;;8.33;7.62;;;;;;;34.86;39.89;100531.55;2020552;88;31969;-68
2021/06/26 07:26:40;;;;;;;8.75;7.83;;;;;;;34.80;39.46;100522.20;2020618;88;33003;-67
2021/06/26 07:29:42;;;;;;;8.90;7.55;;;;;;;34.94;40.18;100520.12;2020382;88;30241;-67
2021/06/26 07:32:45;;;;;;;11.05;7.22;;;;;;;35.11;39.10;100523.66;2020750;88;27580;-67
2021/06/26 07:35:47;;;;;;;7.92;7.08;;;;;;;35.31;38.99;100521.16;2020788;88;29449;-67
2021/06/26 07:38:49;;;;;;;11.73;7.65;;;;;;;35.38;38.51;100524.70;2020324;88;30201;-67
2021/06/26 07:41:51;;;;;;;8.75;7.83;;;;;;;35.34;38.20;100529.05;2020629;88;34030;-67
2021/06/26 07:44:53;;;;;;;11.97;7.72;;;;;;;35.27;37.72;100532.76;2020345;88;29442;-68
2021/06/26 07:47:54;;;;;;;8.15;7.25;;;;;;;35.07;37.73;100534.98;2020854;88;27540;-68
2021/06/26 07:50:57;;;;;;;7.10;6.40;;;;;;;35.09;37.71;100528.08;2020671;88;28612;-67
2021/06/26 07:53:59;;;;;;;7.40;6.60;;;;;;;35.24;37.73;100526.81;2020743;88;32086;-67
2021/06/26 07:57:01;;;;;;;7.87;6.90;;;;;;;35.63;38.04;100527.38;2020614;88;32954;-66
2021/06/26 08:00:06;;;;;;;8.98;6.58;;;;;;;36.03;37.68;100523.12;2020017;88;29306;-67
2021/06/26 08:03:08;;;;;;;6.42;5.65;;;;;;;35.70;36.75;100525.88;2020014;88;27528;-66
2021/06/26 08:06:09;;;;;;;6.65;5.58;;;;;;;34.97;36.47;100532.19;2020623;88;29429;-66
2021/06/26 08:09:11;;;;;;;7.75;7.05;;;;;;;34.08;36.37;100535.19;2020610;88;31964;-65
2021/06/26 08:12:15;;;;;;;7.85;6.12;;;;;;;33.31;36.55;100529.99;2020598;87;33731;-66
2021/06/26 08:15:17;;;;;;;;;;;;;;;32.80;37.06;100527.48;2023085;88;29345;-67
2021/06/26 08:18:19;;;;;;;6.80;5.05;;;;;;;32.81;37.70;100521.42;2020748;88;27602;-67
2021/06/26 08:21:22;;;;;;;5.65;5.05;;;;;;;33.04;37.33;100522.32;2020647;88;29448;-66
2021/06/26 08:24:23;;;;;;;7.25;5.05;;;;;;;32.63;36.39;100525.73;2020837;88;31010;-66
2021/06/26 08:27:25;;;;;;;5.83;5.15;;;;;;;32.02;36.72;100527.67;2020560;88;33019;-66
2021/06/26 08:30:27;;;;;;;5.92;5.42;;;;;;;31.46;36.94;100533.86;2020644;88;29505;-66
2021/06/26 08:33:29;;;;;;;6.22;5.70;;;;;;;30.92;37.41;100533.62;2020424;88;27508;-66
2021/06/26 08:36:31;;;;;;;5.92;5.30;;;;;;;30.55;37.85;100529.38;2020585;88;29386;-66
2021/06/26 08:39:32;;;;;;;6.55;5.95;;;;;;;30.47;38.28;100525.67;2020202;88;30995;-66
2021/06/26 08:42:35;;;;;;;7.40;5.90;;;;;;;30.66;38.08;100526.03;2020274;88;33822;-67
2021/06/26 08:45:37;;;;;;;6.33;5.75;;;;;;;30.79;38.49;100517.48;2020497;88;29283;-68
2021/06/26 08:48:39;;;;;;;5.75;5.17;;;;;;;30.70;38.64;100525.95;2020505;88;27566;-68
2021/06/26 08:51:41;;;;;;;5.72;5.12;;;;;;;30.64;39.22;100519.84;2020659;88;28781;-67
2021/06/26 08:54:43;;;;;;;6.67;5.08;;;;;;;30.81;39.10;100512.59;2020689;88;31059;-68
2021/06/26 08:57:46;;;;;;;6.92;6.00;;;;;;;31.02;39.63;100513.88;2020661;87;33664;-68
2021/06/26 09:00:49;;;;;;;6.97;5.17;;;;;;;31.04;39.57;100510.89;2020700;88;29347;-66
2021/06/26 09:04:06;;;;;;;5.67;5.17;;;;;;;30.95;39.08;100513.52;2020966;88;27548;-67
2021/06/26 09:07:08;;;;;;;6.28;5.78;;;;;;;30.63;38.85;100509.84;2020632;88;28603;-66
2021/06/26 09:10:22;;;;;;;6.20;5.20;;;;;;;30.30;39.33;100517.36;2020549;87;31656;-68
2021/06/26 09:13:33;;;;;;;5.37;4.87;;;;;;;30.03;39.16;100515.78;2020646;88;32943;-67
2021/06/26 09:16:35;;;;;;;5.00;4.60;;;;;;;29.75;39.45;100512.43;2020437;88;29176;-66
2021/06/26 09:19:38;;;;;;;6.67;5.50;;;;;;;29.65;39.35;100512.75;2020861;88;27530;-69
2021/06/26 09:22:50;;;;;;;5.97;5.47;;;;;;;29.39;39.11;100514.17;2020692;88;28684;-69
2021/06/26 09:25:51;;;;;;;7.85;5.97;;;;;;;29.18;39.80;100509.98;2020478;87;31182;-70
2021/06/26 09:28:53;;;;;;;6.47;4.70;;;;;;;28.96;39.84;100510.76;2020622;88;32955;-70
2021/06/26 09:32:03;;;;;;;6.62;5.75;;;;;;;28.77;40.77;100513.59;2020703;88;29343;-75
2021/06/26 09:35:05;;;;;;;7.00;5.72;;;;;;;28.66;41.65;100509.92;2004004;88;27632;-69
2021/06/26 09:38:08;;;;;;;6.72;5.97;;;;;;;28.55;42.54;100511.75;2020528;88;28695;-71
2021/06/26 09:41:16;;;;;;;5.83;5.33;;;;;;;28.47;43.03;100509.44;2021379;88;31080;-74
2021/06/26 09:44:19;;;;;;;7.17;5.75;;;;;;;28.40;43.28;100501.58;1975637;88;50543;-74
2021/06/26 09:47:39;;;;;;;10.60;5.70;;;;;;;28.39;43.71;100503.16;2020563;88;29054;-68
2021/06/26 09:50:45;;;;;;;9.93;6.28;;;;;;;28.43;44.14;100502.58;2020823;88;28185;-70
2021/06/26 09:54:08;;;;;;;6.15;5.55;;;;;;;28.50;44.19;100504.92;2003982;88;28649;-70
2021/06/26 09:57:10;;;;;;;7.00;6.30;;;;;;;28.58;44.39;100503.98;2020664;88;32063;-72
2021/06/26 10:00:16;;;;;;;6.55;5.70;;;;;;;28.58;43.85;100506.73;2020620;87;33699;-63
2021/06/26 10:03:19;;;;;;;6.78;5.65;;;;;;;28.67;44.27;100506.12;2021377;87;30310;-65
2021/06/26 10:06:22;;;;;;;12.15;5.62;;;;;;;28.84;44.05;100509.55;2020903;88;27556;-65
2021/06/26 10:09:24;;;;;;;6.47;5.85;;;;;;;28.94;44.10;100512.01;2020758;87;28697;-63
2021/06/26 10:12:27;;;;;;;10.35;6.22;;;;;;;29.01;44.10;100508.83;2020716;88;31102;-64
2021/06/26 10:15:31;;;;;;;5.75;5.17;;;;;;;29.06;43.84;100494.45;1998067;88;32622;-64
2021/06/26 10:18:35;;;;;;;10.32;5.80;;;;;;;29.10;43.96;100504.05;2020801;88;29300;-63
2021/06/26 10:21:37;;;;;;;5.13;4.53;;;;;;;29.16;43.72;100499.13;2021058;87;27606;-64
2021/06/26 10:24:42;;;;;;;5.50;5.05;;;;;;;29.24;44.01;100494.87;2020442;88;28731;-62
2021/06/26 10:27:45;;;;;;;5.58;4.83;;;;;;;29.32;43.96;100493.03;2021026;88;31659;-63
2021/06/26 10:31:13;;;;;;;9.18;5.58;;;;;;;29.43;44.05;100495.84;2020688;88;33109;-69
2021/06/26 10:34:22;;;;;;;5.58;4.97;;;;;;;29.43;43.61;100509.64;2020713;88;29372;-69
2021/06/26 10:37:25;;;;;;;9.60;5.40;;;;;;;29.38;43.42;100505.55;2020801;88;27727;-64
2021/06/26 10:40:41;;;;;;;5.20;4.70;;;;;;;29.37;43.31;100505.22;2015303;88;27578;-67
2021/06/26 10:43:55;;;;;;;5.42;4.92;;;;;;;29.38;43.61;100503.33;2015242;88;32274;-66
2021/06/26 10:46:57;;;;;;;6.75;5.15;;;;;;;29.48;43.50;100499.72;2014947;88;33187;-64
2021/06/26 10:50:19;;;;;;;5.45;4.92;;;;;;;29.62;43.64;100498.50;2015010;88;30557;-69
2021/06/26 10:53:34;;;;;;;6.92;3.90;;;;;;;29.74;43.09;100498.29;2015344;88;27560;-65
2021/06/26 10:56:36;;;;;;;12.68;4.67;;;;;;;29.82;42.50;100499.52;2015087;88;29644;-63
2021/06/26 10:59:38;;;;;;;7.60;4.20;;;;;;;29.62;41.90;100496.58;2015226;88;31836;-64
2021/06/26 11:02:42;;;;;;;7.03;4.20;;;;;;;29.50;42.77;100500.38;2015369;87;32820;-62
2021/06/26 11:05:44;;;;;;;9.60;4.08;;;;;;;29.50;43.49;100507.82;2015354;88;29509;-64
2021/06/26 11:09:10;;;;;;;4.37;3.90;;;;;;;29.38;42.71;100511.08;2015353;88;27788;-63
2021/06/26 11:12:20;;;;;;;6.08;3.90;;;;;;;29.14;42.88;100512.80;2015280;88;28678;-62
2021/06/26 11:15:31;;;;;;;5.25;3.55;;;;;;;28.84;42.89;100515.06;1998895;88;31113;-64
2021/06/26 11:18:34;;;;;;;4.05;3.70;;;;;;;28.72;43.18;100515.19;2015207;88;33036;-67
2021/06/26 11:21:43;;;;;;;5.78;3.98;;;;;;;28.59;43.23;100519.98;2015263;88;29323;-66
2021/06/26 11:24:47;;;;;;;5.90;4.40;;;;;;;28.52;43.39;100517.66;2015346;88;27860;-67
2021/06/26 11:28:09;;;;;;;6.83;4.12;;;;;;;28.39;43.26;100521.91;2015227;88;29579;-64
2021/06/26 11:31:13;;;;;;;3.80;3.50;;;;;;;28.28;43.37;100519.12;2015235;88;31852;-63
2021/06/26 11:34:16;;;;;;;4.72;3.50;;;;;;;28.17;43.33;100536.08;2015359;88;32998;-64
2021/06/26 11:37:19;;;;;;;7.33;3.75;;;;;;;27.94;43.13;100526.44;2015396;88;29331;-64
2021/06/26 11:40:25;;;;;;;3.75;3.02;;;;;;;27.71;44.07;100528.70;2012777;87;27524;-66
2021/06/26 11:43:28;;;;;;;3.80;3.15;;;;;;;27.52;43.95;100535.02;2012677;88;28733;-64
2021/06/26 11:46:30;;;;;;;6.45;2.80;;;;;;;27.37;44.21;100532.69;2012482;88;31147;-62
2021/06/26 11:49:43;;;;;;;3.75;2.58;;;;;;;27.18;43.96;100531.22;2012485;88;33100;-63
2021/06/26 11:52:46;;;;;;;2.65;2.45;;;;;;;27.05;44.12;100529.91;2011663;88;29554;-63
2021/06/26 11:56:00;;;;;;;2.83;2.62;;;;;;;26.94;43.76;100523.44;2012848;88;27547;-63
2021/06/26 11:59:02;;;;;;;5.08;2.47;;;;;;;26.87;43.96;100519.18;2012795;88;28703;-62
2021/06/26 12:02:04;;;;;;;3.70;3.40;;;;;;;26.80;43.63;100516.78;2012880;88;31879;-62
2021/06/26 12:05:07;;;;;;;2.77;2.58;;;;;;;26.75;43.62;100513.17;2012632;88;32951;-62
2021/06/26 12:08:09;;;;;;;2.83;2.52;;;;;;;26.77;44.02;100510.23;1996304;88;29501;-63
2021/06/26 12:11:13;;;;;;;2.30;2.10;;;;;;;26.82;44.23;100508.69;2012704;88;27761;-62
2021/06/26 12:14:17;;;;;;;2.05;1.95;;;;;;;26.90;43.78;100505.58;2012560;88;28751;-62
2021/06/26 12:17:22;;;;;;;2.40;2.20;;;;;;;26.97;43.78;100507.44;1995610;88;32922;-62
2021/06/26 12:20:25;;;;;;;2.62;2.42;;;;;;;27.04;43.89;100501.23;2012089;88;32949;-62
2021/06/26 12:23:27;;;;;;;2.50;2.40;;;;;;;27.12;43.94;100499.80;2012671;88;29333;-62
2021/06/26 12:26:29;;;;;;;2.40;2.20;;;;;;;27.21;44.07;100495.98;2012601;88;27545;-61
2021/06/26 12:29:32;;;;;;;2.60;2.40;;;;;;;27.28;43.66;100494.73;2012671;88;28452;-62
2021/06/26 12:32:37;;;;;;;2.33;2.12;;;;;;;27.37;43.98;100497.76;2012644;88;31019;-62
2021/06/26 12:35:41;;;;;;;2.17;2.08;;;;;;;27.50;43.37;100493.07;1996425;88;32954;-62
2021/06/26 12:38:45;;;;;;;3.17;2.98;;;;;;;27.62;43.16;100496.76;2012539;88;29390;-62
2021/06/26 12:42:01;;;;;;;2.92;2.72;;;;;;;27.76;43.20;100493.20;1990521;88;27524;-62
2021/06/26 12:45:06;;;;;;;5.00;3.50;;;;;;;27.90;43.57;100502.02;2012557;88;29579;-73
2021/06/26 12:48:26;;;;;;;3.83;3.40;;;;;;;28.03;43.33;100494.52;2012488;88;31695;-73
2021/06/26 12:51:55;;;;;;;3.58;3.25;;;;;;;28.09;43.01;100494.83;2012203;88;32966;-77
2021/06/26 12:54:54;;;;;;;4.62;3.40;;;;;;;28.13;43.54;100496.20;2007704;88;29340;-60
2021/06/26 12:57:57;;;;;;;4.03;3.02;;;;;;;28.15;43.39;100494.09;2012546;88;27588;-61
2021/06/26 13:01:00;;;;;;;3.60;3.30;;;;;;;28.19;43.21;100496.80;2012543;88;28632;-58
2021/06/26 13:04:21;;;;;;;3.58;3.25;;;;;;;28.19;43.03;100496.30;2012527;88;31062;-61
2021/06/26 13:07:30;;;;;;;4.37;3.98;;;;;;;28.25;43.23;100493.82;2012513;88;33247;-60
2021/06/26 13:10:37;;;;;;;3.33;3.12;;;;;;;28.27;43.21;100490.36;2012464;88;29337;-61
2021/06/26 13:13:41;;;;;;;3.25;2.95;;;;;;;28.23;42.45;100489.02;2012391;88;27628;-61
2021/06/26 13:16:46;;;;;;;3.52;3.22;;;;;;;28.09;42.13;100487.40;2012404;88;28616;-60
2021/06/26 13:19:52;;;;;;;3.70;3.33;;;;;;;27.95;42.44;100482.72;2012507;88;31017;-61
2021/06/26 13:22:54;;;;;;;4.58;3.42;;;;;;;27.87;42.04;100479.02;2011880;88;32944;-61
2021/06/26 13:25:56;;;;;;;3.37;3.00;;;;;;;27.78;42.05;100477.89;2012533;88;29505;-62
2021/06/26 13:28:58;;;;;;;5.78;3.50;;;;;;;27.78;42.25;100474.61;2012627;88;27789;-61
2021/06/26 13:32:01;;;;;;;6.45;4.30;;;;;;;27.78;42.37;100462.75;2012667;88;28643;-61
2021/06/26 13:35:03;;;;;;;4.08;3.72;;;;;;;27.80;42.46;100467.56;2012241;88;31096;-61
2021/06/26 13:38:05;;;;;;;4.90;4.40;;;;;;;27.83;42.42;100457.52;2012769;88;33090;-62
2021/06/26 13:41:07;;;;;;;8.43;5.70;;;;;;;27.86;42.27;100462.66;2012384;88;29324;-62
2021/06/26 13:44:09;;;;;;;6.72;4.58;;;;;;;27.62;42.32;100460.48;2012803;88;27541;-62
2021/06/26 13:47:11;;;;;;;4.70;4.33;;;;;;;27.44;42.63;100453.86;2012434;88;28632;-62
2021/06/26 13:50:14;;;;;;;4.03;3.72;;;;;;;27.32;43.27;100449.83;2012351;88;31024;-62
2021/06/26 13:53:18;;;;;;;15.03;13.62;;;;;;;27.35;43.81;100453.59;2012546;88;33083;-62
2021/06/26 13:56:21;;;;;;;6.15;5.65;;;;;;;27.34;43.74;100451.34;2012687;88;29330;-61
2021/06/26 13:59:23;;;;;;;8.47;6.53;;;;;;;27.28;43.89;100444.69;2013192;88;27524;-64
2021/06/26 14:02:25;;;;;;;6.75;5.70;;;;;;;27.13;43.65;100455.63;2012653;88;29834;-62
2021/06/26 14:05:27;;;;;;;8.45;5.75;;;;;;;26.89;43.85;100449.73;2012462;88;32206;-62
2021/06/26 14:08:33;;;;;;;8.65;5.72;;;;;;;26.75;44.24;100444.45;2012599;88;33640;-62